createdAt,value
2019-04-06T00:01:35.748Z,18.67
2019-04-06T00:04:05.828Z,22.57
2019-04-06T00:06:35.960Z,19.20
2019-04-06T00:09:07.643Z,21.90
2019-04-06T00:11:38.716Z,20.50
2019-04-06T00:14:09.130Z,18.70
2019-04-06T00:16:39.470Z,17.10
2019-04-06T00:19:09.950Z,21.80
2019-04-06T00:21:41.299Z,19.17
2019-04-06T00:24:11.427Z,16.93
2019-04-06T00:26:42.428Z,18.60
2019-04-06T00:29:13.044Z,23.07
2019-04-06T00:32:14.682Z,21.80
2019-04-06T00:34:44.850Z,20.93
2019-04-06T00:37:15.260Z,17.53
2019-04-06T00:39:45.353Z,16.83
2019-04-06T00:42:15.451Z,20.07
2019-04-06T00:44:45.556Z,17.73
2019-04-06T00:47:18.353Z,17.17
2019-04-06T00:49:48.502Z,17.43
2019-04-06T00:52:18.592Z,17.53
2019-04-06T00:54:48.886Z,17.33
2019-04-06T00:57:19.347Z,19.57
2019-04-06T00:59:50.386Z,15.43
2019-04-06T01:02:20.694Z,19.90
2019-04-06T01:04:50.855Z,20.83
2019-04-06T01:07:23.157Z,17.73
2019-04-06T01:09:53.160Z,15.13
2019-04-06T01:12:23.245Z,16.80
2019-04-06T01:14:53.375Z,21.07
2019-04-06T01:17:23.876Z,19.90
2019-04-06T01:19:54.037Z,18.50
2019-04-06T01:22:24.438Z,17.13
2019-04-06T01:24:54.635Z,18.20
2019-04-06T01:27:25.640Z,16.67
2019-04-06T01:29:55.741Z,22.33
2019-04-06T01:32:25.946Z,24.03
2019-04-06T01:34:55.994Z,18.03
2019-04-06T01:37:26.380Z,20.23
2019-04-06T01:39:56.986Z,20.30
2019-04-06T01:42:27.077Z,25.33
2019-04-06T01:44:57.217Z,21.53
2019-04-06T01:47:28.237Z,21.47
2019-04-06T01:49:58.378Z,19.37
2019-04-06T01:52:28.484Z,22.10
2019-04-06T01:54:59.295Z,19.73
2019-04-06T01:57:29.911Z,19.90
2019-04-06T02:00:00.007Z,17.40
2019-04-06T02:02:32.434Z,17.57
2019-04-06T02:05:03.636Z,17.53
2019-04-06T02:07:33.736Z,21.33
2019-04-06T02:10:04.179Z,20.77
2019-04-06T02:12:34.438Z,16.53
2019-04-06T02:15:04.821Z,17.90
2019-04-06T02:17:34.888Z,21.23
2019-04-06T02:20:05.253Z,26.00
2019-04-06T02:22:36.266Z,17.93
2019-04-06T02:25:07.275Z,17.73
2019-04-06T02:27:37.516Z,19.67
2019-04-06T02:30:30.366Z,20.50
2019-04-06T02:33:09.478Z,16.93
2019-04-06T02:35:48.025Z,18.40
2019-04-06T02:38:43.621Z,18.97
2019-04-06T02:41:19.608Z,19.97
2019-04-06T02:43:49.693Z,19.10
2019-04-06T02:46:19.780Z,20.73
2019-04-06T02:48:51.343Z,19.30
2019-04-06T02:51:21.440Z,25.47
2019-04-06T02:53:51.655Z,23.57
2019-04-06T02:56:22.639Z,19.80
2019-04-06T02:58:52.754Z,19.33
2019-04-06T03:01:22.921Z,21.77
2019-04-06T03:03:53.155Z,19.03
2019-04-06T03:06:23.318Z,24.17
2019-04-06T03:08:53.730Z,22.23
2019-04-06T03:11:24.271Z,19.20
2019-04-06T03:13:54.340Z,19.07
2019-04-06T03:16:24.473Z,17.80
2019-04-06T03:18:54.543Z,22.67
2019-04-06T03:21:24.791Z,23.60
2019-04-06T03:23:54.965Z,20.97
2019-04-06T03:26:25.124Z,21.20
2019-04-06T03:28:55.182Z,25.23
2019-04-06T03:31:27.718Z,22.27
2019-04-06T03:33:57.765Z,20.90
2019-04-06T03:36:28.020Z,20.93
2019-04-06T03:38:58.101Z,22.60
2019-04-06T03:41:28.692Z,25.43
2019-04-06T03:43:58.816Z,20.97
2019-04-06T03:46:29.777Z,26.20
2019-04-06T03:49:00.706Z,21.27
2019-04-06T03:51:31.248Z,26.53
2019-04-06T03:54:01.361Z,21.97
2019-04-06T03:56:31.380Z,25.80
2019-04-06T03:59:01.442Z,27.77
2019-04-06T04:01:31.630Z,30.00
2019-04-06T04:04:01.668Z,23.37
2019-04-06T04:06:31.990Z,25.17
2019-04-06T04:09:03.899Z,22.47
2019-04-06T04:11:34.529Z,19.00
2019-04-06T04:14:04.648Z,21.07
2019-04-06T04:16:34.798Z,23.47
2019-04-06T04:19:04.891Z,26.33
2019-04-06T04:21:35.052Z,27.13
2019-04-06T04:24:05.109Z,25.73
2019-04-06T04:26:35.489Z,29.70
2019-04-06T04:29:05.552Z,24.10
2019-04-06T04:31:35.886Z,26.13
2019-04-06T04:34:06.062Z,27.67
2019-04-06T04:36:36.211Z,25.57
2019-04-06T04:39:08.135Z,23.67
2019-04-06T04:41:40.131Z,26.73
2019-04-06T04:44:10.591Z,27.90
2019-04-06T04:46:40.737Z,27.20
2019-04-06T04:49:10.776Z,31.97
2019-04-06T04:51:41.615Z,31.30
2019-04-06T04:54:12.918Z,29.07
2019-04-06T04:56:43.004Z,33.80
2019-04-06T04:59:13.096Z,30.47
2019-04-06T05:01:43.090Z,30.10
2019-04-06T05:04:13.144Z,34.80
2019-04-06T05:06:44.598Z,35.30
2019-04-06T05:09:14.626Z,26.47
2019-04-06T05:11:44.785Z,34.70
2019-04-06T05:14:50.649Z,33.33
2019-04-06T05:17:21.016Z,37.83
2019-04-06T05:19:51.935Z,34.10
2019-04-06T05:22:21.980Z,34.07
2019-04-06T05:24:52.025Z,34.03
2019-04-06T05:27:22.194Z,34.17
2019-04-06T05:29:52.785Z,27.97
2019-04-06T05:32:22.939Z,29.43
2019-04-06T05:34:52.995Z,28.33
2019-04-06T05:37:23.045Z,27.40
2019-04-06T05:39:53.319Z,26.33
2019-04-06T05:42:23.376Z,29.63
2019-04-06T05:44:53.434Z,31.43
2019-04-06T05:47:23.493Z,33.10
2019-04-06T05:49:53.625Z,30.87
2019-04-06T05:52:23.845Z,30.20
2019-04-06T05:54:53.845Z,34.07
2019-04-06T05:57:23.895Z,34.27
2019-04-06T05:59:53.959Z,32.80
2019-04-06T06:02:24.040Z,42.53
2019-04-06T06:04:54.081Z,31.07
2019-04-06T06:07:24.195Z,35.53
2019-04-06T06:09:54.269Z,33.23
2019-04-06T06:12:24.365Z,30.00
2019-04-06T06:14:55.509Z,33.17
2019-04-06T06:17:26.706Z,38.50
2019-04-06T06:19:56.850Z,32.60
2019-04-06T06:22:27.016Z,29.57
2019-04-06T06:24:57.177Z,31.80
2019-04-06T06:27:27.303Z,32.97
2019-04-06T06:29:57.377Z,33.40
2019-04-06T06:32:27.483Z,32.23
2019-04-06T06:34:57.523Z,30.73
2019-04-06T06:37:27.564Z,38.90
2019-04-06T06:39:57.768Z,31.40
2019-04-06T06:42:27.815Z,36.80
2019-04-06T06:44:57.853Z,32.97
2019-04-06T06:47:27.957Z,27.90
2019-04-06T06:49:58.110Z,32.87
2019-04-06T06:52:28.162Z,31.97
2019-04-06T06:54:58.339Z,34.80
2019-04-06T06:57:28.352Z,33.20
2019-04-06T06:59:58.418Z,40.47
2019-04-06T07:02:28.599Z,33.83
2019-04-06T07:04:58.658Z,42.47
2019-04-06T07:07:28.911Z,35.50
2019-04-06T07:10:05.079Z,32.73
2019-04-06T07:12:31.050Z,31.87
2019-04-06T07:15:01.109Z,33.07
2019-04-06T07:17:31.206Z,38.50
2019-04-06T07:20:01.372Z,38.57
2019-04-06T07:22:31.419Z,41.80
2019-04-06T07:25:01.488Z,34.00
2019-04-06T07:27:31.642Z,34.00
2019-04-06T07:30:01.714Z,34.13
2019-04-06T07:32:31.767Z,35.87
2019-04-06T07:35:01.840Z,29.30
2019-04-06T07:37:31.935Z,32.50
2019-04-06T07:40:02.051Z,38.80
2019-04-06T07:42:32.368Z,31.50
2019-04-06T07:45:02.849Z,33.27
2019-04-06T07:47:32.947Z,30.73
2019-04-06T07:50:14.167Z,32.13
2019-04-06T07:52:45.399Z,34.70
2019-04-06T07:55:15.726Z,32.07
2019-04-06T07:57:46.395Z,30.43
2019-04-06T08:00:17.160Z,29.63
2019-04-06T08:02:48.916Z,29.17
2019-04-06T08:05:19.600Z,35.97
2019-04-06T08:07:52.219Z,29.57
2019-04-06T08:10:28.410Z,30.23
2019-04-06T08:12:58.596Z,35.27
2019-04-06T08:15:29.386Z,32.70
2019-04-06T08:18:00.611Z,35.77
2019-04-06T08:20:39.509Z,30.73
2019-04-06T08:23:10.368Z,28.50
2019-04-06T08:25:41.399Z,27.30
2019-04-06T08:28:15.032Z,26.93
2019-04-06T08:30:47.062Z,27.53
2019-04-06T08:33:17.978Z,36.97
2019-04-06T08:35:49.213Z,30.23
2019-04-06T08:38:20.597Z,29.17
2019-04-06T08:40:51.681Z,28.17
2019-04-06T08:43:22.744Z,32.80
2019-04-06T08:45:54.989Z,28.67
2019-04-06T08:48:28.877Z,24.80
2019-04-06T08:50:59.619Z,30.23
2019-04-06T08:53:30.693Z,28.90
2019-04-06T08:56:01.384Z,30.07
2019-04-06T08:58:32.073Z,33.53
2019-04-06T09:01:02.939Z,24.10
2019-04-06T09:03:33.669Z,29.67
2019-04-06T09:06:04.340Z,28.67
2019-04-06T09:08:40.127Z,33.93
2019-04-06T09:11:13.740Z,28.60
2019-04-06T09:13:45.266Z,34.90
2019-04-06T09:16:16.270Z,28.57
2019-04-06T09:18:49.343Z,28.50
2019-04-06T09:21:22.641Z,26.27
2019-04-06T09:23:58.237Z,24.70
2019-04-06T09:26:30.002Z,25.67
2019-04-06T09:29:00.803Z,24.87
2019-04-06T09:31:31.541Z,25.63
2019-04-06T09:34:03.420Z,29.30
2019-04-06T09:36:34.401Z,30.70
2019-04-06T09:39:06.555Z,21.90
2019-04-06T09:41:49.547Z,22.43
2019-04-06T09:44:31.370Z,25.70
2019-04-06T09:47:11.391Z,22.60
2019-04-06T09:49:55.443Z,25.93
2019-04-06T09:52:32.923Z,24.70
2019-04-06T09:55:20.616Z,26.97
2019-04-06T09:58:16.740Z,24.43
2019-04-06T10:01:12.590Z,26.30
2019-04-06T10:03:56.377Z,22.70
2019-04-06T10:06:39.291Z,20.07
2019-04-06T10:09:29.407Z,20.83
2019-04-06T10:12:29.487Z,21.33
2019-04-06T10:15:24.377Z,22.30
2019-04-06T10:18:17.934Z,21.03
2019-04-06T10:21:08.455Z,19.60
2019-04-06T10:23:57.619Z,21.53
2019-04-06T10:26:55.359Z,23.57
2019-04-06T10:29:49.195Z,21.37
2019-04-06T10:32:33.750Z,19.83
2019-04-06T10:35:31.192Z,17.93
2019-04-06T10:38:20.834Z,21.33
2019-04-06T10:41:11.287Z,16.00
2019-04-06T10:44:07.517Z,20.70
2019-04-06T10:47:06.508Z,20.47
2019-04-06T10:49:57.637Z,18.33
2019-04-06T10:52:42.681Z,18.30
2019-04-06T10:55:31.663Z,14.50
2019-04-06T10:58:19.846Z,16.57
2019-04-06T11:01:12.100Z,19.90
2019-04-06T11:04:15.540Z,18.57
2019-04-06T11:07:11.204Z,17.33
2019-04-06T11:09:56.770Z,19.77
2019-04-06T11:12:51.203Z,19.53
2019-04-06T11:15:39.676Z,14.37
2019-04-06T11:18:35.233Z,17.33
2019-04-06T11:21:23.978Z,17.13
2019-04-06T11:24:32.864Z,18.63
2019-04-06T11:27:26.937Z,18.93
2019-04-06T11:30:16.677Z,18.30
2019-04-06T11:33:05.221Z,15.20
2019-04-06T11:35:46.047Z,16.07
2019-04-06T11:38:51.018Z,19.00
2019-04-06T11:41:47.827Z,18.20
2019-04-06T11:44:43.715Z,18.60
2019-04-06T11:47:23.198Z,16.27
2019-04-06T11:50:03.861Z,17.33
2019-04-06T11:52:56.535Z,16.93
2019-04-06T11:55:55.231Z,23.07
2019-04-06T11:58:44.848Z,17.57
2019-04-06T12:01:43.776Z,16.53
2019-04-06T12:04:40.029Z,18.23
2019-04-06T12:07:20.760Z,16.03
2019-04-06T12:10:00.388Z,12.97
2019-04-06T12:13:05.136Z,16.97
2019-04-06T12:15:55.457Z,15.40
2019-04-06T12:18:54.367Z,23.00
2019-04-06T12:21:58.514Z,14.37
2019-04-06T12:24:58.832Z,16.93
2019-04-06T12:27:43.094Z,14.20
2019-04-06T12:30:51.571Z,16.30
2019-04-06T12:33:47.793Z,17.43
2019-04-06T12:36:29.239Z,17.17
2019-04-06T12:39:18.562Z,16.93
2019-04-06T12:42:20.118Z,16.20
2019-04-06T12:45:19.518Z,13.33
2019-04-06T12:48:12.055Z,13.73
2019-04-06T12:51:04.103Z,15.70
2019-04-06T12:53:53.720Z,15.37
2019-04-06T12:56:42.146Z,15.10
2019-04-06T12:59:23.599Z,13.67
2019-04-06T13:02:20.201Z,11.67
2019-04-06T13:05:24.915Z,14.07
2019-04-06T13:08:27.051Z,16.90
2019-04-06T13:11:20.005Z,12.57
2019-04-06T13:14:08.521Z,15.00
2019-04-06T13:16:56.634Z,11.67
2019-04-06T13:19:48.986Z,14.13
2019-04-06T13:22:39.593Z,16.33
2019-04-06T13:25:35.974Z,13.07
2019-04-06T13:28:24.828Z,10.70
2019-04-06T13:31:26.964Z,13.80
2019-04-06T13:34:26.299Z,12.40
2019-04-06T13:37:06.844Z,15.27
2019-04-06T13:40:01.516Z,10.67
2019-04-06T13:43:00.939Z,11.47
2019-04-06T13:45:59.533Z,13.60
2019-04-06T13:48:39.298Z,12.27
2019-04-06T13:51:27.797Z,13.13
2019-04-06T13:54:17.749Z,13.40
2019-04-06T13:57:16.772Z,12.10
2019-04-06T14:00:09.391Z,11.30
2019-04-06T14:03:03.624Z,12.67
2019-04-06T14:05:53.174Z,13.40
2019-04-06T14:08:43.290Z,11.30
2019-04-06T14:11:51.314Z,13.00
2019-04-06T14:14:41.263Z,12.73
2019-04-06T14:17:29.830Z,12.60
2019-04-06T14:20:21.386Z,10.37
2019-04-06T14:23:17.944Z,11.37
2019-04-06T14:26:20.059Z,11.63
2019-04-06T14:29:05.200Z,12.00
2019-04-06T14:31:47.742Z,10.77
2019-04-06T14:34:44.054Z,12.83
2019-04-06T14:37:28.408Z,11.70
2019-04-06T14:40:16.755Z,13.53
2019-04-06T14:43:05.513Z,12.50
2019-04-06T14:46:07.681Z,14.83
2019-04-06T14:49:17.242Z,13.40
2019-04-06T14:51:58.939Z,13.40
2019-04-06T14:54:48.479Z,14.30
2019-04-06T14:57:25.098Z,15.73
2019-04-06T15:00:14.626Z,13.47
2019-04-06T15:03:22.423Z,13.47
2019-04-06T15:06:10.505Z,12.07
2019-04-06T15:09:06.450Z,12.30
2019-04-06T15:12:03.964Z,12.70
2019-04-06T15:14:53.334Z,17.27
2019-04-06T15:17:30.182Z,12.27
2019-04-06T15:20:06.802Z,15.53
2019-04-06T15:22:59.279Z,14.03
2019-04-06T15:25:36.909Z,11.90
2019-04-06T15:28:33.192Z,14.77
2019-04-06T15:31:29.063Z,12.30
2019-04-06T15:34:14.255Z,12.67
2019-04-06T15:36:52.274Z,17.20
2019-04-06T15:39:40.675Z,12.03
2019-04-06T15:42:21.729Z,13.03
2019-04-06T15:45:11.416Z,10.70
2019-04-06T15:48:16.272Z,10.70
2019-04-06T15:50:58.695Z,15.47
2019-04-06T15:53:57.510Z,16.20
2019-04-06T15:56:41.350Z,13.73
2019-04-06T15:59:37.156Z,17.33
2019-04-06T16:02:26.945Z,12.97
2019-04-06T16:05:25.797Z,13.00
2019-04-06T16:08:11.176Z,14.57
2019-04-06T16:10:56.527Z,14.07
2019-04-06T16:13:55.676Z,17.10
2019-04-06T16:16:45.281Z,15.93
2019-04-06T16:19:43.918Z,13.07
2019-04-06T16:22:33.784Z,13.57
2019-04-06T16:25:32.660Z,19.70
2019-04-06T16:28:22.371Z,12.67
2019-04-06T16:31:03.080Z,17.43
2019-04-06T16:33:51.722Z,17.73
2019-04-06T16:36:44.414Z,16.77
2019-04-06T16:39:31.015Z,15.77
2019-04-06T16:42:20.679Z,13.27
2019-04-06T16:45:13.831Z,14.27
2019-04-06T16:48:06.487Z,18.20
2019-04-06T16:50:56.713Z,12.73
2019-04-06T16:53:55.617Z,18.50
2019-04-06T16:56:45.499Z,14.10
2019-04-06T16:59:23.959Z,17.87
2019-04-06T17:02:09.015Z,18.10
2019-04-06T17:04:54.687Z,14.87
2019-04-06T17:08:10.221Z,11.83
2019-04-06T17:10:42.592Z,13.83
2019-04-06T17:13:24.716Z,15.37
2019-04-06T17:16:09.664Z,15.40
2019-04-06T17:18:51.187Z,13.97
2019-04-06T17:21:41.181Z,22.43
2019-04-06T17:24:18.120Z,15.27
2019-04-06T17:27:06.449Z,21.33
2019-04-06T17:29:52.686Z,19.67
2019-04-06T17:32:46.020Z,15.80
2019-04-06T17:35:36.460Z,17.13
2019-04-06T17:38:23.130Z,17.70
2019-04-06T17:41:15.612Z,20.63
2019-04-06T17:44:02.303Z,16.13
2019-04-06T17:47:10.346Z,14.03
2019-04-06T17:50:11.058Z,19.23
2019-04-06T17:53:10.655Z,14.93
2019-04-06T17:56:00.475Z,19.77
2019-04-06T17:58:44.081Z,18.83
2019-04-06T18:01:41.118Z,22.23
2019-04-06T18:04:23.874Z,21.10
2019-04-06T18:07:22.423Z,27.30
2019-04-06T18:10:03.387Z,43.10
2019-04-06T18:12:42.249Z,31.93
2019-04-06T18:15:13.232Z,18.70
2019-04-06T18:17:43.920Z,17.00
2019-04-06T18:20:15.521Z,19.93
2019-04-06T18:22:46.746Z,16.27
2019-04-06T18:25:17.686Z,19.57
2019-04-06T18:27:48.432Z,19.43
2019-04-06T18:30:20.377Z,24.63
2019-04-06T18:33:10.443Z,23.30
2019-04-06T18:35:41.561Z,26.00
2019-04-06T18:38:31.113Z,20.00
2019-04-06T18:41:02.528Z,19.60
2019-04-06T18:43:33.313Z,24.33
2019-04-06T18:46:03.966Z,22.97
2019-04-06T18:48:34.787Z,24.53
2019-04-06T18:51:05.907Z,25.77
2019-04-06T18:53:37.074Z,28.23
2019-04-06T18:56:07.877Z,30.03
2019-04-06T18:58:39.931Z,26.50
2019-04-06T19:01:13.374Z,21.40
2019-04-06T19:03:45.156Z,21.10
2019-04-06T19:06:16.273Z,24.30
2019-04-06T19:08:47.494Z,23.53
2019-04-06T19:11:18.760Z,26.33
2019-04-06T19:13:50.212Z,24.17
2019-04-06T19:16:21.997Z,24.90
2019-04-06T19:18:52.666Z,43.27
2019-04-06T19:21:23.340Z,65.63
2019-04-06T19:23:56.208Z,69.90
2019-04-06T19:26:27.074Z,61.17
2019-04-06T19:28:58.148Z,46.63
2019-04-06T19:31:28.893Z,46.53
2019-04-06T19:34:00.442Z,37.93
2019-04-06T19:36:31.367Z,34.57
2019-04-06T19:39:02.105Z,41.23
2019-04-06T19:41:32.792Z,30.17
2019-04-06T19:44:03.650Z,25.67
2019-04-06T19:46:34.338Z,24.50
2019-04-06T19:49:13.224Z,30.33
2019-04-06T19:51:44.487Z,28.90
2019-04-06T19:54:15.075Z,33.23
2019-04-06T19:56:54.311Z,27.53
2019-04-06T19:59:25.147Z,24.50
2019-04-06T20:01:56.750Z,22.13
2019-04-06T20:04:28.457Z,30.00
2019-04-06T20:06:59.109Z,24.23
2019-04-06T20:09:29.752Z,27.80
2019-04-06T20:12:05.673Z,20.90
2019-04-06T20:14:33.665Z,24.40
2019-04-06T20:17:04.361Z,28.70
2019-04-06T20:19:35.118Z,21.83
2019-04-06T20:22:05.931Z,24.53
2019-04-06T20:24:36.610Z,29.47
2019-04-06T20:27:08.222Z,25.60
2019-04-06T20:29:51.887Z,23.73
2019-04-06T20:32:35.590Z,22.10
2019-04-06T20:35:09.262Z,23.53
2019-04-06T20:37:40.169Z,18.27
2019-04-06T20:40:11.870Z,21.37
2019-04-06T20:42:43.767Z,19.03
2019-04-06T20:45:14.665Z,22.40
2019-04-06T20:47:45.949Z,21.50
2019-04-06T20:50:22.582Z,22.93
2019-04-06T20:52:53.411Z,23.27
2019-04-06T20:55:24.323Z,24.63
2019-04-06T20:57:55.410Z,23.40
2019-04-06T21:00:26.783Z,27.10
2019-04-06T21:02:58.219Z,19.50
2019-04-06T21:05:29.203Z,21.20
2019-04-06T21:08:00.790Z,27.07
2019-04-06T21:10:32.595Z,23.70
2019-04-06T21:13:03.574Z,20.00
2019-04-06T21:15:35.041Z,19.97
2019-04-06T21:18:06.619Z,20.03
2019-04-06T21:20:38.040Z,23.20
2019-04-06T21:23:08.853Z,20.80
2019-04-06T21:25:40.194Z,22.67
2019-04-06T21:28:10.981Z,23.30
2019-04-06T21:30:42.419Z,20.53
2019-04-06T21:33:18.606Z,23.40
2019-04-06T21:35:49.339Z,17.40
2019-04-06T21:38:20.997Z,19.07
2019-04-06T21:40:54.383Z,19.00
2019-04-06T21:43:25.151Z,20.20
2019-04-06T21:45:55.816Z,22.63
2019-04-06T21:48:27.024Z,22.43
2019-04-06T21:50:58.229Z,24.77
2019-04-06T21:53:29.285Z,27.47
2019-04-06T21:56:03.361Z,25.20
2019-04-06T21:58:33.519Z,29.00
2019-04-06T22:01:04.881Z,29.97
2019-04-06T22:03:36.442Z,34.20
2019-04-06T22:06:07.900Z,31.60
2019-04-06T22:08:39.518Z,41.33
2019-04-06T22:11:11.971Z,35.80
2019-04-06T22:13:43.136Z,32.90
2019-04-06T22:16:14.135Z,26.97
2019-04-06T22:18:45.311Z,23.10
2019-04-06T22:21:16.352Z,23.87
2019-04-06T22:23:47.956Z,17.83
2019-04-06T22:26:19.428Z,19.70
2019-04-06T22:28:50.858Z,20.43
2019-04-06T22:31:22.407Z,18.40
2019-04-06T22:33:53.485Z,27.33
2019-04-06T22:36:25.526Z,25.13
2019-04-06T22:38:57.216Z,22.70
2019-04-06T22:41:28.994Z,25.20
2019-04-06T22:44:00.706Z,22.00
2019-04-06T22:46:32.464Z,18.50
2019-04-06T22:49:03.817Z,21.67
2019-04-06T22:51:35.921Z,20.93
2019-04-06T22:54:06.854Z,23.67
2019-04-06T22:56:38.719Z,22.33
2019-04-06T22:59:09.680Z,20.60
2019-04-06T23:01:42.510Z,20.13
2019-04-06T23:04:28.722Z,22.20
2019-04-06T23:07:08.489Z,29.77
2019-04-06T23:09:39.778Z,29.43
2019-04-06T23:12:11.879Z,25.47
2019-04-06T23:14:43.090Z,23.47
2019-04-06T23:17:14.650Z,19.07
2019-04-06T23:19:45.400Z,24.73
2019-04-06T23:22:16.089Z,26.17
2019-04-06T23:24:46.893Z,20.17
2019-04-06T23:27:17.792Z,25.27
2019-04-06T23:29:48.635Z,20.60
2019-04-06T23:32:20.365Z,24.10
2019-04-06T23:34:58.886Z,24.50
2019-04-06T23:37:24.222Z,21.50
2019-04-06T23:39:55.258Z,25.07
2019-04-06T23:42:26.150Z,20.40
2019-04-06T23:44:56.900Z,26.03
2019-04-06T23:47:27.567Z,23.57
2019-04-06T23:49:58.383Z,23.00
2019-04-06T23:52:29.694Z,21.00
2019-04-06T23:55:01.149Z,26.67
2019-04-06T23:57:32.030Z,20.10
